Time;durP1;ratioP1;P1;durP2;ratioP2;P2;SDS_P1;SDS_P2;PMS_P1;PMS_P2;Temp;Humidity;BMP_temperature;BMP_pressure;BME280_temperature;BME280_humidity;BME280_pressure;Samples;Min_cycle;Max_cycle;Signal;HPM_P1;HPM_P2
2022/02/10 00:17:23;;;;;;;3.40;3.10;;;;;;;18.13;44.43;98016.34;4857096;29;20207;-88
2022/02/10 00:22:46;;;;;;;4.60;3.77;;;;;;;18.07;44.34;98023.66;4842420;29;20284;-89
2022/02/10 00:36:17;;;;;;;3.20;2.90;;;;;;;17.99;44.25;97957.16;4832039;29;20726;-88
2022/02/10 00:38:54;;;;;;;3.63;3.23;;;;;;;18.36;44.11;98027.66;4812833;29;20219;-88
2022/02/10 00:41:22;;;;;;;3.17;2.87;;;;;;;16.56;44.17;97743.09;4827904;29;20207;-87
2022/02/10 00:43:49;;;;;;;3.40;3.10;;;;;;;17.48;44.12;97898.59;4812230;29;20211;-87
2022/02/10 00:46:18;;;;;;;3.20;2.90;;;;;;;19.05;44.10;98145.72;4812888;29;20264;-88
2022/02/10 00:48:47;;;;;;;3.67;3.37;;;;;;;18.75;44.53;98094.16;4827606;29;20216;-88
2022/02/10 00:51:14;;;;;;;4.20;3.17;;;;;;;18.73;44.18;98127.97;4833290;29;20203;-88
2022/02/10 00:53:43;;;;;;;3.50;3.20;;;;;;;15.66;43.83;97558.28;4811221;29;20227;-87
2022/02/10 00:56:10;;;;;;;4.10;3.20;;;;;;;18.25;44.17;98044.94;4826883;29;20315;-87
2022/02/10 00:58:40;;;;;;;3.60;3.17;;;;;;;18.18;44.55;98098.84;4826733;29;20246;-87
2022/02/10 01:36:28;;;;;;;4.00;3.60;;;;;;;19.15;44.28;98183.56;5215200;23;20254;-86
2022/02/10 01:38:55;;;;;;;4.53;3.37;;;;;;;19.15;44.04;98181.00;4878388;29;20313;-88
2022/02/10 02:06:04;;;;;;;3.60;3.30;;;;;;;18.71;44.26;98063.38;4870867;29;20198;-86
2022/02/10 02:08:34;;;;;;;3.83;3.27;;;;;;;18.66;44.00;98052.09;4855425;29;20736;-86
2022/02/10 02:11:02;;;;;;;4.13;3.70;;;;;;;18.88;43.97;98090.53;4859635;29;20278;-88
2022/02/10 02:13:29;;;;;;;3.80;3.43;;;;;;;19.03;44.29;98112.53;4843354;29;20321;-85
2022/02/10 02:15:55;;;;;;;3.83;3.43;;;;;;;18.64;43.99;98043.50;4843700;29;20287;-87
2022/02/10 02:18:22;;;;;;;3.40;3.10;;;;;;;18.86;44.01;98064.13;4843892;29;20248;-88
2022/02/10 02:20:56;;;;;;;4.17;3.50;;;;;;;18.79;43.85;98067.16;4858630;29;20219;-86
2022/02/10 02:23:23;;;;;;;3.50;3.20;;;;;;;18.88;43.98;98068.47;4859530;29;20655;-86
2022/02/10 02:25:56;;;;;;;3.57;3.23;;;;;;;19.23;43.77;98122.00;4843149;29;20636;-86
2022/02/10 02:28:23;;;;;;;3.20;2.90;;;;;;;18.82;43.96;98060.56;4844996;29;20219;-85
2022/02/10 02:30:55;;;;;;;3.77;3.17;;;;;;;18.85;43.94;98068.34;4843022;29;20776;-88
2022/02/10 02:36:46;;;;;;;3.30;3.00;;;;;;;18.88;44.14;98068.47;4860542;29;20288;-86
2022/02/10 03:06:36;;;;;;;4.07;3.40;;;;;;;18.57;43.89;98005.81;4854061;29;20298;-86
2022/02/10 03:09:08;;;;;;;3.03;2.73;;;;;;;18.99;43.98;98082.63;4843447;29;20298;-87
2022/02/10 03:11:36;;;;;;;3.40;3.10;;;;;;;18.45;43.83;97990.84;4858431;29;20301;-91
2022/02/10 04:13:21;;;;;;;3.50;3.20;;;;;;;19.03;44.12;98075.97;4872627;29;20284;-85
2022/02/10 04:15:57;;;;;;;3.50;3.20;;;;;;;19.13;43.83;98090.91;4866554;29;20297;-85
2022/02/10 04:24:18;;;;;;;3.10;2.80;;;;;;;19.03;43.92;98073.41;4838826;29;20314;-85
2022/02/10 04:58:37;;;;;;;3.70;3.30;;;;;;;18.88;44.08;98032.81;4880243;29;20213;-85
2022/02/10 05:23:05;;;;;;;4.10;3.40;;;;;;;18.58;44.22;97969.38;4880189;29;20291;-88
2022/02/10 05:58:02;;;;;;;3.50;3.20;;;;;;;18.45;44.18;97972.16;4879596;29;20400;-85
2022/02/10 08:57:30;;;;;;;7.90;7.10;;;;;;;18.75;41.50;98014.34;4878427;29;20309;-86
2022/02/10 09:00:29;;;;;;;8.70;7.80;;;;;;;18.30;41.67;97935.75;4865946;29;20297;-85
2022/02/10 09:22:38;;;;;;;8.57;6.80;;;;;;;18.42;42.03;97949.97;4877627;29;20230;-86
2022/02/10 09:56:35;;;;;;;9.77;7.17;;;;;;;18.81;41.16;98012.09;4880802;29;20253;-85
2022/02/10 09:59:25;;;;;;;9.53;6.70;;;;;;;18.73;41.55;98000.66;4876142;29;20293;-85
2022/02/10 10:02:08;;;;;;;8.17;6.93;;;;;;;18.96;41.36;98038.28;4908336;29;20237;-86
2022/02/10 10:04:43;;;;;;;7.93;6.83;;;;;;;18.75;41.53;98002.50;4891702;29;20281;-85
2022/02/10 10:07:21;;;;;;;9.83;7.07;;;;;;;18.88;41.42;98027.75;4881723;29;20974;-86
2022/02/10 10:10:00;;;;;;;8.40;6.53;;;;;;;18.79;41.02;98013.69;4881889;29;20233;-86
2022/02/10 10:54:37;;;;;;;6.83;5.37;;;;;;;18.93;42.19;97954.97;4885794;29;20729;-88
2022/02/10 10:57:13;;;;;;;7.60;5.73;;;;;;;19.02;41.97;97973.22;4861975;29;20314;-86
2022/02/10 11:44:22;;;;;;;6.47;5.10;;;;;;;19.15;42.38;97904.19;4879147;29;20297;-87
2022/02/10 11:47:40;;;;;;;6.13;4.83;;;;;;;19.29;42.44;97922.66;4866947;29;20190;-87
2022/02/10 12:00:01;;;;;;;5.70;4.87;;;;;;;19.18;42.43;97923.81;4890436;29;20241;-88
2022/02/10 12:36:42;;;;;;;5.77;4.90;;;;;;;19.33;42.65;97922.88;4881830;29;20282;-88
2022/02/10 12:39:55;;;;;;;6.50;5.00;;;;;;;18.76;42.68;97822.59;4869009;29;20254;-87
2022/02/10 14:11:08;;;;;;;7.93;5.63;;;;;;;19.13;40.32;97875.22;4896121;29;20208;-81
2022/02/10 14:13:39;;;;;;;10.07;5.67;;;;;;;16.81;40.57;97476.22;4902340;29;20253;-81
2022/02/10 14:19:13;;;;;;;17.70;6.10;;;;;;;18.63;41.78;97793.19;4890634;29;20297;-81
2022/02/10 14:21:48;;;;;;;9.23;5.53;;;;;;;18.70;41.58;97815.56;4870978;29;20274;-81
2022/02/10 14:27:01;;;;;;;8.20;5.63;;;;;;;16.47;41.48;97414.53;4899094;29;20233;-80
2022/02/10 14:29:28;;;;;;;9.77;5.73;;;;;;;18.55;41.62;97776.69;4904369;29;20198;-81
2022/02/10 14:31:55;;;;;;;10.67;4.93;;;;;;;15.43;41.37;97224.50;4887889;29;20206;-82
2022/02/10 14:34:26;;;;;;;6.93;5.17;;;;;;;14.66;41.77;97091.63;4912331;29;20257;-80
2022/02/10 14:37:11;;;;;;;8.13;5.40;;;;;;;14.40;41.82;97099.59;4872866;29;20226;-82
2022/02/10 15:13:48;;;;;;;4.73;3.90;;;;;;;18.36;43.28;97737.59;4887572;29;20245;-79
2022/02/10 16:17:15;;;;;;;4.37;3.30;;;;;;;17.94;43.64;97698.34;4865969;29;20211;-78
2022/02/10 16:19:42;;;;;;;5.10;3.80;;;;;;;18.75;43.86;97834.47;4885270;29;20249;-79
2022/02/10 16:24:49;;;;;;;3.67;3.37;;;;;;;15.55;43.68;97285.84;4880079;29;20732;-79
2022/02/10 16:27:21;;;;;;;4.20;3.10;;;;;;;18.94;43.74;97887.94;4894756;29;20293;-78
2022/02/10 16:29:48;;;;;;;5.63;3.50;;;;;;;16.70;43.68;97483.34;4879597;29;20533;-80
2022/02/10 16:32:20;;;;;;;3.30;3.00;;;;;;;18.20;44.14;97747.06;4879877;29;20241;-80
2022/02/10 16:34:51;;;;;;;3.70;3.10;;;;;;;18.31;43.78;97777.22;4881939;29;20779;-77
2022/02/10 16:37:18;;;;;;;3.77;3.17;;;;;;;19.02;43.72;97883.19;4883454;29;20249;-78
2022/02/10 16:39:49;;;;;;;3.83;3.43;;;;;;;18.41;43.80;97784.50;4887586;29;20264;-79
2022/02/10 16:42:21;;;;;;;5.43;3.83;;;;;;;18.68;43.59;97892.66;4879054;29;20238;-80
2022/02/10 16:44:47;;;;;;;4.50;3.73;;;;;;;18.13;43.94;97744.19;4879671;29;20310;-79
2022/02/10 16:47:19;;;;;;;7.53;3.50;;;;;;;18.24;43.64;97765.91;4899576;29;20297;-78
2022/02/10 16:49:53;;;;;;;4.53;3.20;;;;;;;16.45;43.54;97465.19;4875077;29;20333;-79
2022/02/10 16:52:31;;;;;;;4.77;3.37;;;;;;;17.57;43.84;97657.66;4879878;29;20238;-76
2022/02/10 16:55:18;;;;;;;3.80;3.40;;;;;;;18.95;43.89;97888.84;4893961;29;20249;-79
2022/02/10 17:03:47;;;;;;;4.23;3.30;;;;;;;18.69;43.92;97856.22;4907996;29;20281;-90
2022/02/10 17:17:33;;;;;;;3.40;3.10;;;;;;;19.00;44.18;97928.97;4900481;29;20217;-89
2022/02/10 17:20:25;;;;;;;3.50;3.10;;;;;;;17.65;44.11;97678.34;4908667;29;20242;-88
2022/02/10 17:25:40;;;;;;;4.17;3.10;;;;;;;17.75;44.37;97698.31;4907079;29;20285;-92
2022/02/10 17:28:09;;;;;;;4.17;2.60;;;;;;;19.04;44.22;97917.25;4914487;29;20205;-88
2022/02/10 17:31:04;;;;;;;4.53;3.43;;;;;;;17.52;44.02;97661.66;4915360;29;20217;-90
2022/02/10 17:33:37;;;;;;;3.33;2.90;;;;;;;15.43;43.94;97290.31;4881170;29;20246;-88
2022/02/10 17:36:15;;;;;;;3.47;3.17;;;;;;;18.95;44.10;97910.06;4894480;29;20712;-90
2022/02/10 17:41:43;;;;;;;5.13;3.27;;;;;;;18.46;43.93;97851.72;4899556;29;20236;-90
2022/02/10 17:44:33;;;;;;;3.60;3.30;;;;;;;18.54;43.78;97823.31;4898733;29;20731;-89
2022/02/10 17:52:35;;;;;;;3.10;2.80;;;;;;;17.85;44.06;97705.53;4906638;29;20276;-82
2022/02/10 17:55:02;;;;;;;3.10;2.80;;;;;;;18.99;43.95;97911.06;4894448;29;20237;-81
2022/02/10 17:57:29;;;;;;;3.30;3.00;;;;;;;18.12;44.07;97760.25;4878293;29;20253;-82
2022/02/10 17:59:55;;;;;;;3.20;2.90;;;;;;;18.58;43.92;97844.66;4902387;29;20317;-83
2022/02/10 18:02:22;;;;;;;3.07;2.87;;;;;;;17.48;43.80;97658.91;4869681;29;20230;-82
2022/02/10 18:04:49;;;;;;;3.33;3.03;;;;;;;18.67;43.61;97866.31;4888795;29;20257;-81
2022/02/10 18:07:16;;;;;;;3.97;3.30;;;;;;;19.19;43.84;97974.84;4911128;29;20833;-82
2022/02/10 18:15:19;;;;;;;5.67;2.93;;;;;;;18.85;44.09;97901.94;4903949;29;20646;-81
2022/02/10 18:17:53;;;;;;;4.27;3.13;;;;;;;18.05;44.01;97760.75;4898162;29;20206;-82
2022/02/10 18:20:26;;;;;;;5.83;3.20;;;;;;;18.71;44.25;97885.16;4876036;29;20233;-82
2022/02/10 18:23:06;;;;;;;3.43;2.73;;;;;;;19.20;44.60;97968.09;4878218;29;20305;-82
2022/02/10 18:29:18;;;;;;;3.87;3.23;;;;;;;16.56;44.21;97511.38;4898836;29;20779;-78
2022/02/10 19:09:26;;;;;;;2.97;2.73;;;;;;;18.17;44.51;97813.06;4882754;29;20234;-82
2022/02/10 19:12:00;;;;;;;3.27;2.93;;;;;;;17.78;44.06;97750.16;4880401;29;20193;-78
2022/02/10 19:14:27;;;;;;;3.03;2.73;;;;;;;18.89;44.25;97936.94;4883714;23;20231;-83
2022/02/10 19:16:54;;;;;;;3.27;2.73;;;;;;;18.37;44.19;97844.56;4842561;29;20723;-83
2022/02/10 19:19:21;;;;;;;2.57;2.37;;;;;;;18.95;44.24;97955.91;4856603;29;20223;-83
2022/02/10 19:21:48;;;;;;;2.97;2.67;;;;;;;18.91;44.37;97938.75;4826093;29;20632;-83
2022/02/10 19:24:16;;;;;;;3.13;2.83;;;;;;;18.94;44.17;97956.72;4868153;29;20319;-82
2022/02/10 19:26:45;;;;;;;4.63;2.80;;;;;;;18.98;44.36;97960.28;4838172;29;20294;-82
2022/02/10 19:29:15;;;;;;;3.10;2.70;;;;;;;18.85;44.55;97935.03;4837926;29;20244;-83
2022/02/10 19:31:41;;;;;;;3.13;2.60;;;;;;;18.96;44.44;97955.13;4822808;29;20307;-82
2022/02/10 19:34:08;;;;;;;3.30;3.00;;;;;;;18.49;44.61;97884.97;4814049;29;20255;-83
2022/02/10 19:36:42;;;;;;;2.90;2.63;;;;;;;18.44;44.63;97878.81;4840471;29;20199;-82
2022/02/10 19:39:14;;;;;;;3.07;2.87;;;;;;;18.96;44.45;97967.84;4841466;29;20315;-83
2022/02/10 19:41:43;;;;;;;3.10;2.80;;;;;;;19.05;44.72;97986.09;4828650;29;20252;-85
2022/02/10 19:44:12;;;;;;;3.67;2.60;;;;;;;18.80;44.38;97933.97;4855736;29;20658;-85
2022/02/10 19:46:39;;;;;;;3.10;2.80;;;;;;;18.64;44.49;97914.56;4853904;29;20243;-85
2022/02/10 19:49:06;;;;;;;3.00;2.57;;;;;;;18.90;44.49;97949.75;4869736;29;20255;-86
2022/02/10 19:51:33;;;;;;;3.00;2.70;;;;;;;18.58;44.72;97890.47;4853887;29;20318;-85
2022/02/10 19:54:00;;;;;;;3.37;2.93;;;;;;;18.46;44.71;97872.09;4868834;29;20361;-85
2022/02/10 19:56:29;;;;;;;2.63;2.40;;;;;;;18.52;44.59;97883.44;4853805;29;20271;-85
2022/02/10 19:58:55;;;;;;;3.03;2.73;;;;;;;18.24;44.38;97857.47;4854306;29;20254;-85
2022/02/10 20:01:24;;;;;;;2.80;2.50;;;;;;;18.59;44.71;97900.72;4842508;29;20303;-85
2022/02/10 20:03:50;;;;;;;2.70;2.50;;;;;;;18.71;44.47;97933.53;4872685;29;20326;-86
2022/02/10 20:06:17;;;;;;;3.10;2.80;;;;;;;18.72;44.54;97938.72;4857827;29;20251;-86
2022/02/10 20:08:46;;;;;;;3.40;2.90;;;;;;;19.03;44.74;97986.81;4857801;29;20290;-85
2022/02/10 20:11:15;;;;;;;3.20;2.90;;;;;;;19.02;44.52;97985.09;4867830;29;20208;-87
2022/02/10 20:13:43;;;;;;;2.73;2.47;;;;;;;18.86;44.51;97960.56;4844085;29;20740;-85
2022/02/10 20:16:11;;;;;;;3.00;2.70;;;;;;;18.84;44.57;97959.66;4856743;29;20211;-86
2022/02/10 20:18:38;;;;;;;2.97;2.57;;;;;;;19.02;44.60;97987.63;4842167;29;20283;-85
2022/02/10 20:21:04;;;;;;;2.93;2.73;;;;;;;18.77;44.87;97952.50;4872561;29;20701;-85
2022/02/10 20:23:33;;;;;;;2.83;2.63;;;;;;;18.86;44.72;97967.34;4872185;29;20227;-85
2022/02/10 20:47:40;;;;;;;2.50;2.30;;;;;;;18.74;44.80;97934.53;4855558;29;20311;-85
2022/02/10 20:50:10;;;;;;;2.87;2.67;;;;;;;18.65;44.86;97910.34;4827041;29;20628;-85
2022/02/10 20:52:36;;;;;;;3.00;2.70;;;;;;;18.91;44.67;97954.03;4828764;29;20298;-85
2022/02/10 20:55:03;;;;;;;2.83;2.60;;;;;;;18.86;44.78;97939.34;4858158;29;20283;-85
2022/02/10 20:57:30;;;;;;;2.80;2.60;;;;;;;18.85;44.93;97938.47;4811402;29;20231;-85
2022/02/10 20:59:57;;;;;;;3.10;2.87;;;;;;;18.98;44.68;97952.63;4825927;29;20227;-86
2022/02/10 21:02:33;;;;;;;3.13;2.83;;;;;;;18.77;44.75;97921.94;4841733;29;20633;-85
2022/02/10 21:05:12;;;;;;;3.10;2.80;;;;;;;18.85;44.71;97929.94;4827041;29;20342;-85
2022/02/10 21:07:59;;;;;;;3.03;2.70;;;;;;;18.37;44.96;97847.09;4814518;29;20616;-84
2022/02/10 21:10:27;;;;;;;3.10;2.80;;;;;;;18.90;44.56;97941.22;4827964;29;20311;-85
2022/02/10 21:12:54;;;;;;;3.07;2.77;;;;;;;18.59;44.64;97885.47;4841625;29;20207;-84
2022/02/10 21:15:27;;;;;;;2.53;2.33;;;;;;;18.98;44.69;97950.09;4810906;29;20235;-84
2022/02/10 21:18:00;;;;;;;3.20;2.90;;;;;;;18.88;44.52;97935.16;4812972;29;20235;-85
2022/02/10 21:20:29;;;;;;;3.10;2.80;;;;;;;18.91;44.64;97938.75;4826969;29;20259;-85
2022/02/10 21:23:33;;;;;;;2.73;2.50;;;;;;;18.89;44.78;97944.56;4826626;29;20294;-85
2022/02/10 21:25:52;;;;;;;2.97;2.70;;;;;;;18.86;44.57;97932.56;4831738;29;20242;-84
2022/02/10 21:28:23;;;;;;;2.87;2.60;;;;;;;18.81;44.51;97923.84;4811280;29;20725;-85
2022/02/10 21:30:53;;;;;;;2.50;2.30;;;;;;;18.88;44.62;97922.44;4826937;29;20271;-85
2022/02/10 21:33:29;;;;;;;2.53;2.33;;;;;;;18.91;44.72;97930.22;4811477;29;20262;-85
2022/02/10 21:38:27;;;;;;;2.80;2.60;;;;;;;19.04;44.54;97933.41;4841413;29;20726;-85
2022/02/10 21:54:38;;;;;;;3.10;2.80;;;;;;;18.85;45.09;97909.56;4842872;29;20318;-84
2022/02/10 22:21:17;;;;;;;2.80;2.53;;;;;;;18.98;44.91;97939.91;4823261;29;20223;-85
2022/02/10 22:23:46;;;;;;;2.57;2.37;;;;;;;18.87;45.37;97915.63;4840022;29;20365;-85
2022/02/10 22:26:20;;;;;;;2.97;2.77;;;;;;;18.62;45.02;97877.13;4840482;29;20299;-85
2022/02/10 22:28:55;;;;;;;2.67;2.47;;;;;;;18.55;44.92;97869.97;4811653;29;20211;-84
2022/02/10 22:56:08;;;;;;;3.07;2.60;;;;;;;18.79;45.26;97884.72;5670798;23;20870;-85
2022/02/10 22:58:37;;;;;;;2.70;2.50;;;;;;;18.75;45.27;97869.22;4846141;29;20651;-85
2022/02/10 23:01:07;;;;;;;2.80;2.50;;;;;;;18.70;45.12;97865.59;4876863;29;20668;-84
2022/02/10 23:03:36;;;;;;;3.00;2.70;;;;;;;18.69;45.05;97861.31;4855592;29;20763;-85
2022/02/10 23:06:03;;;;;;;2.70;2.50;;;;;;;18.83;45.06;97880.63;4870267;29;20207;-84
2022/02/10 23:08:30;;;;;;;3.17;2.60;;;;;;;18.70;45.18;97861.38;4854466;29;20298;-84
2022/02/10 23:10:57;;;;;;;2.80;2.60;;;;;;;18.95;45.25;97896.47;4854708;29;20294;-84
2022/02/10 23:13:27;;;;;;;2.97;2.77;;;;;;;18.86;45.16;97868.03;4854648;29;20604;-84
2022/02/10 23:15:59;;;;;;;2.60;2.40;;;;;;;18.84;45.00;97865.44;4860445;29;20294;-84
2022/02/10 23:18:27;;;;;;;2.90;2.70;;;;;;;18.71;45.03;97844.44;4872661;29;20243;-84
2022/02/10 23:20:57;;;;;;;2.87;2.57;;;;;;;18.85;44.89;97859.53;4872173;29;20235;-84
2022/02/10 23:23:27;;;;;;;3.03;2.73;;;;;;;18.77;45.21;97839.63;4871919;29;20263;-85
2022/02/10 23:25:56;;;;;;;2.80;2.60;;;;;;;18.81;45.04;97842.38;4872583;29;20701;-84
2022/02/10 23:28:32;;;;;;;3.10;2.80;;;;;;;18.80;44.88;97824.47;4856728;29;20336;-84
2022/02/10 23:30:59;;;;;;;2.70;2.50;;;;;;;18.82;45.13;97830.50;4838188;29;20606;-84
2022/02/10 23:33:37;;;;;;;3.00;2.70;;;;;;;18.84;44.96;97842.50;4838322;29;20287;-84
2022/02/10 23:38:42;;;;;;;3.03;2.77;;;;;;;18.99;44.69;97857.59;4872487;29;20633;-84
2022/02/10 23:43:54;;;;;;;2.80;2.60;;;;;;;18.69;45.02;97803.63;4861812;29;20264;-85
2022/02/10 23:46:22;;;;;;;3.07;2.83;;;;;;;18.69;45.03;97801.09;4854546;29;20717;-84
2022/02/10 23:48:49;;;;;;;3.50;2.73;;;;;;;18.58;45.02;97779.38;4856246;29;20231;-84
2022/02/10 23:51:17;;;;;;;2.83;2.63;;;;;;;18.74;45.12;97811.47;4854449;29;20299;-84
2022/02/10 23:53:44;;;;;;;2.77;2.57;;;;;;;18.92;44.96;97841.16;4854286;29;20228;-83
2022/02/10 23:56:14;;;;;;;4.27;3.00;;;;;;;18.70;45.13;97789.22;4868581;29;20745;-84
